Time;durP1;ratioP1;P1;durP2;ratioP2;P2;SDS_P1;SDS_P2;PMS_P1;PMS_P2;Temp;Humidity;BMP_temperature;BMP_pressure;BME280_temperature;BME280_humidity;BME280_pressure;Samples;Min_cycle;Max_cycle;Signal;HPM_P1;HPM_P2
2022/04/07 00:01:27;;;;;;;9.15;3.45;;;;;;;;;;5036936;28;20491;-87
2022/04/07 00:03:53;;;;;;;10.27;3.42;;;;;;;;;;5036622;28;20041;-89
2022/04/07 00:06:19;;;;;;;13.55;3.25;;;;;;;;;;5037102;28;20037;-89
2022/04/07 00:08:45;;;;;;;8.73;2.97;;;;;;;;;;5037003;28;20040;-88
2022/04/07 00:11:12;;;;;;;7.95;2.90;;;;;;;;;;5036321;28;20045;-89
2022/04/07 00:13:38;;;;;;;8.77;3.08;;;;;;;;;;5036825;28;20393;-89
2022/04/07 00:16:04;;;;;;;7.88;2.85;;;;;;;;;;5036391;28;20372;-89
2022/04/07 00:18:30;;;;;;;11.40;2.85;;;;;;;;;;5036663;28;20048;-88
2022/04/07 00:20:56;;;;;;;7.55;3.33;;;;;;;;;;5019945;28;20398;-89
2022/04/07 00:23:23;;;;;;;8.75;2.83;;;;;;;;;;5020166;28;20037;-89
2022/04/07 00:25:49;;;;;;;10.63;3.13;;;;;;;;;;5036341;28;20047;-89
2022/04/07 00:28:15;;;;;;;9.20;2.70;;;;;;;;;;5019823;28;20037;-89
2022/04/07 00:30:43;;;;;;;7.53;2.30;;;;;;;;;;5020263;28;20072;-89
2022/04/07 00:33:09;;;;;;;5.45;1.60;;;;;;;;;;5019665;28;20044;-89
2022/04/07 00:35:34;;;;;;;7.63;2.08;;;;;;;;;;5036474;28;20057;-89
2022/04/07 00:38:01;;;;;;;10.20;1.95;;;;;;;;;;5036685;28;20040;-88
2022/04/07 00:40:27;;;;;;;6.80;1.95;;;;;;;;;;5035963;28;20094;-90
2022/04/07 00:42:53;;;;;;;8.23;1.90;;;;;;;;;;5019628;28;20048;-89
2022/04/07 00:45:20;;;;;;;9.13;2.03;;;;;;;;;;5035770;28;20048;-89
2022/04/07 00:47:47;;;;;;;8.80;2.10;;;;;;;;;;5036476;28;20053;-90
2022/04/07 00:50:14;;;;;;;9.15;2.10;;;;;;;;;;5035809;28;20048;-88
2022/04/07 00:52:54;;;;;;;7.30;2.22;;;;;;;;;;5024988;28;20064;-88
2022/04/07 00:55:21;;;;;;;6.40;2.40;;;;;;;;;;5033423;28;20045;-88
2022/04/07 00:57:47;;;;;;;10.63;2.70;;;;;;;;;;5036211;28;20045;-90
2022/04/07 01:00:13;;;;;;;7.07;2.83;;;;;;;;;;5035878;28;20388;-90
2022/04/07 01:02:39;;;;;;;7.75;3.22;;;;;;;;;;5019169;28;20536;-89
2022/04/07 01:05:06;;;;;;;11.25;2.90;;;;;;;;;;5035627;28;20099;-89
2022/04/07 01:07:37;;;;;;;7.07;2.92;;;;;;;;;;5019218;28;20065;-88
2022/04/07 01:10:03;;;;;;;9.07;2.60;;;;;;;;;;5035816;28;20041;-89
2022/04/07 01:12:29;;;;;;;7.22;2.38;;;;;;;;;;5035404;28;20048;-89
2022/04/07 01:14:59;;;;;;;8.63;2.20;;;;;;;;;;5035620;28;20119;-90
2022/04/07 01:17:25;;;;;;;6.65;2.00;;;;;;;;;;5018999;28;20090;-89
2022/04/07 01:19:51;;;;;;;6.82;1.77;;;;;;;;;;5018803;28;20094;-89
2022/04/07 01:22:18;;;;;;;6.15;1.52;;;;;;;;;;5034990;28;20110;-90
2022/04/07 01:24:44;;;;;;;5.85;1.52;;;;;;;;;;5035415;28;20037;-89
2022/04/07 01:27:11;;;;;;;7.70;1.92;;;;;;;;;;5035485;28;20044;-89
2022/04/07 01:29:38;;;;;;;5.88;1.60;;;;;;;;;;5035375;28;20052;-89
2022/04/07 01:32:10;;;;;;;5.50;1.73;;;;;;;;;;5018653;28;20045;-90
2022/04/07 01:34:36;;;;;;;5.28;1.40;;;;;;;;;;5035244;28;20048;-89
2022/04/07 01:37:02;;;;;;;8.10;1.60;;;;;;;;;;5035311;28;20045;-91
2022/04/07 01:39:28;;;;;;;10.07;1.95;;;;;;;;;;5035391;28;20095;-90
2022/04/07 01:41:55;;;;;;;6.28;1.73;;;;;;;;;;5034693;28;20047;-90
2022/04/07 01:44:23;;;;;;;8.27;2.00;;;;;;;;;;5035054;28;20076;-89
2022/04/07 01:46:51;;;;;;;7.80;2.42;;;;;;;;;;5035020;28;20053;-90
2022/04/07 01:49:18;;;;;;;11.30;3.20;;;;;;;;;;5018362;28;20083;-88
2022/04/07 01:51:45;;;;;;;10.77;2.78;;;;;;;;;;5018010;28;20048;-89
2022/04/07 01:54:11;;;;;;;10.02;3.25;;;;;;;;;;5034915;28;20463;-89
2022/04/07 01:56:44;;;;;;;8.95;3.45;;;;;;;;;;5018630;28;20072;-88
2022/04/07 01:59:10;;;;;;;9.13;3.60;;;;;;;;;;5035171;28;20041;-88
2022/04/07 02:01:37;;;;;;;9.63;3.30;;;;;;;;;;5034500;28;20056;-89
2022/04/07 02:04:03;;;;;;;8.48;3.70;;;;;;;;;;5035181;28;20037;-89
2022/04/07 02:06:30;;;;;;;9.50;4.25;;;;;;;;;;5017907;28;20079;-89
2022/04/07 02:08:56;;;;;;;10.80;4.05;;;;;;;;;;5035224;28;20041;-89
2022/04/07 02:11:22;;;;;;;10.35;3.78;;;;;;;;;;5034826;28;20072;-89
2022/04/07 02:13:49;;;;;;;10.20;3.80;;;;;;;;;;5034797;28;20044;-89
2022/04/07 02:16:15;;;;;;;10.07;3.70;;;;;;;;;;5018202;28;20505;-91
2022/04/07 02:18:41;;;;;;;13.43;3.58;;;;;;;;;;5035035;28;20438;-88
2022/04/07 02:21:07;;;;;;;10.65;3.13;;;;;;;;;;5034340;28;20041;-89
2022/04/07 02:23:41;;;;;;;11.30;3.38;;;;;;;;;;5035289;28;20037;-89
2022/04/07 02:26:15;;;;;;;12.18;2.88;;;;;;;;;;5018737;28;20132;-89
2022/04/07 02:28:41;;;;;;;14.85;3.25;;;;;;;;;;5035263;28;20071;-90
2022/04/07 02:31:08;;;;;;;9.20;2.90;;;;;;;;;;5034574;28;20484;-89
2022/04/07 02:33:36;;;;;;;14.00;3.38;;;;;;;;;;5035408;28;20126;-90
2022/04/07 02:36:03;;;;;;;13.25;3.47;;;;;;;;;;5038742;28;20043;-90
2022/04/07 02:38:29;;;;;;;11.13;3.33;;;;;;;;;;5038777;28;20094;-90
2022/04/07 02:40:55;;;;;;;11.40;3.88;;;;;;;;;;5039737;28;20037;-89
2022/04/07 02:43:21;;;;;;;13.88;3.13;;;;;;;;;;5038972;28;20418;-89
2022/04/07 02:45:47;;;;;;;9.82;3.30;;;;;;;;;;5038380;28;20060;-89
2022/04/07 02:48:13;;;;;;;11.77;3.38;;;;;;;;;;5038827;28;20053;-89
2022/04/07 02:50:39;;;;;;;13.13;3.97;;;;;;;;;;5022028;28;20345;-89
2022/04/07 02:53:06;;;;;;;16.63;3.40;;;;;;;;;;5022123;28;20041;-90
2022/04/07 02:55:32;;;;;;;14.18;3.90;;;;;;;;;;5039191;28;20048;-90
2022/04/07 02:57:59;;;;;;;15.70;3.40;;;;;;;;;;5021737;28;20052;-89
2022/04/07 03:00:25;;;;;;;9.90;3.40;;;;;;;;;;5038391;28;20040;-90
2022/04/07 03:02:51;;;;;;;13.60;3.45;;;;;;;;;;5038281;28;20549;-91
2022/04/07 03:05:17;;;;;;;10.70;3.60;;;;;;;;;;5021676;28;20138;-88
2022/04/07 03:07:43;;;;;;;10.73;3.60;;;;;;;;;;5021378;28;20048;-89
2022/04/07 03:10:09;;;;;;;10.65;3.10;;;;;;;;;;5037993;28;20037;-88
2022/04/07 03:12:35;;;;;;;11.65;3.22;;;;;;;;;;5037621;28;20049;-91
2022/04/07 03:15:02;;;;;;;10.40;3.60;;;;;;;;;;5021676;28;20484;-89
2022/04/07 03:17:28;;;;;;;11.73;3.20;;;;;;;;;;5021304;28;20041;-90
2022/04/07 03:19:53;;;;;;;12.90;3.30;;;;;;;;;;5037921;28;20041;-89
2022/04/07 03:22:20;;;;;;;14.15;3.40;;;;;;;;;;5037452;28;20044;-90
2022/04/07 03:24:49;;;;;;;12.27;3.38;;;;;;;;;;5038171;28;20120;-90
2022/04/07 03:27:15;;;;;;;13.65;3.40;;;;;;;;;;5037570;28;20033;-89
2022/04/07 03:29:41;;;;;;;12.95;3.58;;;;;;;;;;5037512;28;20091;-89
2022/04/07 03:32:07;;;;;;;11.48;3.30;;;;;;;;;;5020905;28;20041;-88
2022/04/07 03:34:33;;;;;;;9.95;2.95;;;;;;;;;;5037544;28;20041;-89
2022/04/07 03:37:00;;;;;;;11.07;3.53;;;;;;;;;;5037487;28;20048;-91
2022/04/07 03:39:26;;;;;;;9.05;3.13;;;;;;;;;;5037777;28;20044;-89
2022/04/07 03:41:52;;;;;;;12.98;3.10;;;;;;;;;;5037439;28;20171;-89
2022/04/07 03:44:18;;;;;;;10.15;2.90;;;;;;;;;;5037683;28;20048;-89
2022/04/07 03:46:44;;;;;;;10.73;2.83;;;;;;;;;;5036254;28;20049;-89
2022/04/07 03:49:10;;;;;;;11.85;3.00;;;;;;;;;;5037349;28;20040;-89
2022/04/07 03:51:36;;;;;;;9.75;2.55;;;;;;;;;;5021265;28;20102;-90
2022/04/07 03:54:02;;;;;;;9.48;2.10;;;;;;;;;;5037068;28;20484;-90
2022/04/07 03:56:28;;;;;;;9.00;2.40;;;;;;;;;;5037014;28;20558;-88
2022/04/07 03:58:55;;;;;;;9.48;2.22;;;;;;;;;;5037480;28;20148;-90
2022/04/07 04:01:21;;;;;;;10.57;2.95;;;;;;;;;;5036785;28;20087;-89
2022/04/07 04:03:47;;;;;;;9.65;2.78;;;;;;;;;;5037215;28;20033;-88
2022/04/07 04:06:13;;;;;;;8.77;2.38;;;;;;;;;;5020625;28;20060;-89
2022/04/07 04:08:39;;;;;;;13.80;2.42;;;;;;;;;;5036935;28;20037;-88
2022/04/07 04:11:05;;;;;;;12.48;2.45;;;;;;;;;;5036931;28;20052;-89
2022/04/07 04:13:31;;;;;;;14.52;2.78;;;;;;;;;;5020191;28;20087;-89
2022/04/07 04:15:58;;;;;;;11.27;2.70;;;;;;;;;;5036739;28;20458;-88
2022/04/07 04:18:24;;;;;;;10.68;2.40;;;;;;;;;;5019756;28;20122;-89
2022/04/07 04:20:50;;;;;;;13.52;2.60;;;;;;;;;;5036502;28;20502;-89
2022/04/07 04:23:16;;;;;;;13.40;2.97;;;;;;;;;;5036166;28;20037;-89
2022/04/07 04:25:42;;;;;;;15.60;3.28;;;;;;;;;;5036428;28;20095;-88
2022/04/07 04:28:08;;;;;;;16.95;3.40;;;;;;;;;;5036368;28;20392;-90
2022/04/07 04:30:35;;;;;;;16.02;3.13;;;;;;;;;;5036543;28;20094;-90
2022/04/07 04:33:01;;;;;;;16.88;3.88;;;;;;;;;;5019720;28;20044;-89
2022/04/07 04:35:27;;;;;;;14.18;3.10;;;;;;;;;;5036449;28;20102;-89
2022/04/07 04:37:53;;;;;;;12.73;3.30;;;;;;;;;;5036084;28;20451;-89
2022/04/07 04:40:20;;;;;;;12.55;2.95;;;;;;;;;;5019786;28;20106;-90
2022/04/07 04:42:46;;;;;;;19.10;3.53;;;;;;;;;;5019432;28;20076;-88
2022/04/07 04:45:12;;;;;;;14.52;3.90;;;;;;;;;;5036192;28;20095;-90
2022/04/07 04:47:38;;;;;;;15.77;3.42;;;;;;;;;;5035994;28;20051;-89
2022/04/07 04:50:05;;;;;;;20.00;3.53;;;;;;;;;;5036063;28;20037;-89
2022/04/07 04:52:31;;;;;;;16.27;4.10;;;;;;;;;;5036733;28;20101;-89
2022/04/07 04:54:57;;;;;;;17.80;3.90;;;;;;;;;;5036057;28;20040;-87
2022/04/07 04:57:23;;;;;;;16.58;3.88;;;;;;;;;;5035679;28;20037;-88
2022/04/07 04:59:49;;;;;;;16.10;3.97;;;;;;;;;;5035808;28;20514;-88
2022/04/07 05:02:15;;;;;;;19.90;4.55;;;;;;;;;;5035266;28;20126;-88
2022/04/07 05:04:41;;;;;;;18.60;3.80;;;;;;;;;;5019616;28;20068;-88
2022/04/07 05:07:07;;;;;;;13.23;3.28;;;;;;;;;;5035730;28;20044;-89
2022/04/07 05:09:34;;;;;;;9.15;2.15;;;;;;;;;;5035959;28;20569;-89
2022/04/07 05:12:00;;;;;;;9.90;2.10;;;;;;;;;;5035479;28;20048;-88
2022/04/07 05:14:26;;;;;;;8.05;1.52;;;;;;;;;;5035642;28;20040;-88
2022/04/07 05:16:53;;;;;;;7.60;1.40;;;;;;;;;;5027761;28;20056;-89
2022/04/07 05:19:19;;;;;;;10.73;2.20;;;;;;;;;;5031599;28;20049;-88
2022/04/07 05:21:49;;;;;;;14.32;2.65;;;;;;;;;;5035195;28;20053;-89
2022/04/07 05:24:17;;;;;;;12.68;2.72;;;;;;;;;;5035314;28;20048;-88
2022/04/07 05:26:43;;;;;;;14.93;3.53;;;;;;;;;;5027625;28;20116;-90
2022/04/07 05:29:09;;;;;;;18.67;3.72;;;;;;;;;;5040426;28;20463;-91
2022/04/07 05:31:35;;;;;;;17.17;3.10;;;;;;;;;;5054820;28;20200;-90
2022/04/07 05:34:00;;;;;;;12.70;3.40;;;;;;;;;;5038113;28;20488;-89
2022/04/07 05:36:27;;;;;;;11.55;2.55;;;;;;;;;;5054974;28;20123;-88
2022/04/07 05:38:53;;;;;;;11.38;2.40;;;;;;;;;;5035266;28;20037;-87
2022/04/07 05:41:19;;;;;;;8.50;1.85;;;;;;;;;;5032050;28;20068;-89
2022/04/07 05:43:45;;;;;;;8.65;1.77;;;;;;;;;;5034896;28;20037;-90
2022/04/07 05:46:11;;;;;;;11.57;2.20;;;;;;;;;;5051406;28;20053;-89
2022/04/07 05:48:37;;;;;;;7.60;0.65;;;;;;;;;;5040513;28;20075;-89
2022/04/07 05:51:03;;;;;;;2.97;0.40;;;;;;;;;;5034966;28;20037;-89
2022/04/07 05:53:31;;;;;;;3.42;0.75;;;;;;;;;;5044542;28;20103;-90
2022/04/07 05:55:58;;;;;;;3.47;0.60;;;;;;;;;;5035335;28;20047;-91
2022/04/07 05:58:24;;;;;;;5.47;0.88;;;;;;;;;;5032625;28;20120;-89
2022/04/07 06:00:50;;;;;;;6.25;1.00;;;;;;;;;;5043814;28;20480;-90
2022/04/07 06:03:16;;;;;;;4.93;0.82;;;;;;;;;;5034719;28;20094;-90
2022/04/07 06:05:42;;;;;;;5.07;0.93;;;;;;;;;;5050195;28;20455;-90
2022/04/07 06:08:08;;;;;;;4.75;0.85;;;;;;;;;;5018382;28;20044;-90
2022/04/07 06:10:34;;;;;;;5.00;0.80;;;;;;;;;;5045474;28;20048;-90
2022/04/07 06:13:00;;;;;;;3.70;0.63;;;;;;;;;;5037135;28;20050;-89
2022/04/07 06:15:28;;;;;;;5.22;1.08;;;;;;;;;;5036369;28;20041;-91
2022/04/07 06:17:54;;;;;;;6.15;1.00;;;;;;;;;;5043680;28;20516;-90
2022/04/07 06:20:21;;;;;;;4.93;0.80;;;;;;;;;;5044909;28;20051;-90
2022/04/07 06:22:47;;;;;;;4.78;1.20;;;;;;;;;;5041397;28;20045;-91
2022/04/07 06:25:13;;;;;;;7.43;1.10;;;;;;;;;;5040628;28;20033;-89
2022/04/07 06:27:47;;;;;;;7.95;0.95;;;;;;;;;;5046015;28;20416;-91
2022/04/07 06:30:14;;;;;;;5.85;0.90;;;;;;;;;;5034851;28;20105;-92
2022/04/07 06:32:40;;;;;;;7.03;1.10;;;;;;;;;;5038031;28;20036;-90
2022/04/07 06:35:07;;;;;;;6.30;0.88;;;;;;;;;;5034576;28;20041;-90
2022/04/07 06:37:44;;;;;;;7.40;1.02;;;;;;;;;;5044024;28;20063;-93
2022/04/07 06:40:11;;;;;;;5.22;0.88;;;;;;;;;;5049094;28;20045;-90
2022/04/07 06:42:37;;;;;;;7.25;0.80;;;;;;;;;;5055087;28;20458;-90
2022/04/07 06:45:03;;;;;;;4.07;0.60;;;;;;;;;;5026742;28;20084;-90
2022/04/07 06:47:36;;;;;;;2.38;0.47;;;;;;;;;;5029220;28;20534;-91
2022/04/07 06:50:02;;;;;;;5.40;1.10;;;;;;;;;;5018327;28;20115;-92
2022/04/07 06:52:28;;;;;;;3.33;0.70;;;;;;;;;;5047249;28;20084;-91
2022/04/07 06:54:54;;;;;;;4.22;0.65;;;;;;;;;;5043335;28;20063;-90
2022/04/07 06:57:20;;;;;;;5.25;0.95;;;;;;;;;;5055011;28;20483;-92
2022/04/07 06:59:46;;;;;;;7.18;1.10;;;;;;;;;;5035870;28;20119;-91
2022/04/07 07:02:12;;;;;;;3.65;0.80;;;;;;;;;;5037229;28;20048;-90
2022/04/07 07:04:38;;;;;;;3.60;0.80;;;;;;;;;;5036193;28;20472;-90
2022/04/07 07:07:04;;;;;;;6.97;0.82;;;;;;;;;;5041945;28;20041;-91
2022/04/07 07:09:30;;;;;;;4.97;0.60;;;;;;;;;;5040272;28;20123;-91
2022/04/07 07:11:56;;;;;;;4.85;0.75;;;;;;;;;;5038256;28;20129;-91
2022/04/07 07:14:22;;;;;;;4.00;0.68;;;;;;;;;;5054585;28;20041;-92
2022/04/07 07:16:48;;;;;;;3.25;0.50;;;;;;;;;;5036511;28;20044;-91
2022/04/07 07:19:16;;;;;;;3.50;0.63;;;;;;;;;;5038335;28;20052;-91
2022/04/07 07:21:42;;;;;;;2.70;0.40;;;;;;;;;;5028616;28;20480;-91
2022/04/07 07:24:08;;;;;;;2.75;0.50;;;;;;;;;;5057875;28;20040;-92
2022/04/07 07:26:34;;;;;;;2.63;0.40;;;;;;;;;;5055670;28;20401;-91
2022/04/07 07:29:01;;;;;;;4.05;0.40;;;;;;;;;;5029394;28;20040;-92
2022/04/07 07:31:27;;;;;;;3.13;0.30;;;;;;;;;;5022341;28;20059;-90
2022/04/07 07:33:53;;;;;;;2.53;0.40;;;;;;;;;;5020082;28;20037;-91
2022/04/07 07:36:19;;;;;;;2.45;0.45;;;;;;;;;;5022063;28;20455;-91
2022/04/07 07:38:45;;;;;;;3.15;0.40;;;;;;;;;;5038433;28;20045;-91
2022/04/07 07:41:11;;;;;;;2.67;0.47;;;;;;;;;;5021937;28;20037;-90
2022/04/07 07:43:37;;;;;;;2.42;0.50;;;;;;;;;;5021426;28;20476;-91
2022/04/07 07:46:03;;;;;;;1.70;0.40;;;;;;;;;;5038115;28;20049;-91
2022/04/07 07:48:30;;;;;;;3.15;0.40;;;;;;;;;;5037945;28;20044;-91
2022/04/07 07:50:56;;;;;;;3.38;0.93;;;;;;;;;;5037701;28;20209;-91
2022/04/07 07:53:22;;;;;;;2.95;0.40;;;;;;;;;;5037961;28;20127;-91
2022/04/07 07:55:49;;;;;;;4.13;1.13;;;;;;;;;;5037808;28;20049;-90
2022/04/07 07:58:15;;;;;;;1.77;0.38;;;;;;;;;;5021569;28;20049;-91
2022/04/07 08:00:41;;;;;;;2.75;0.50;;;;;;;;;;5021017;28;20488;-90
2022/04/07 08:03:08;;;;;;;2.88;0.52;;;;;;;;;;5037447;28;20048;-89
2022/04/07 08:05:35;;;;;;;1.67;0.40;;;;;;;;;;5020598;28;20041;-90
2022/04/07 08:08:01;;;;;;;3.50;0.50;;;;;;;;;;5037743;28;20123;-90
2022/04/07 08:10:27;;;;;;;5.72;0.55;;;;;;;;;;5020953;28;20040;-91
2022/04/07 08:12:53;;;;;;;3.72;0.60;;;;;;;;;;5037538;28;20381;-90
2022/04/07 08:15:19;;;;;;;3.55;0.43;;;;;;;;;;5037194;28;20136;-91
2022/04/07 08:17:45;;;;;;;5.43;0.65;;;;;;;;;;5037459;28;20507;-90
2022/04/07 08:20:12;;;;;;;3.97;0.57;;;;;;;;;;5037383;28;20076;-90
2022/04/07 08:22:38;;;;;;;3.38;0.60;;;;;;;;;;5037213;28;20041;-89
2022/04/07 08:25:04;;;;;;;4.95;0.60;;;;;;;;;;5036850;28;20033;-92
2022/04/07 08:27:30;;;;;;;2.63;0.45;;;;;;;;;;5037003;28;20060;-89
2022/04/07 08:29:56;;;;;;;4.28;0.52;;;;;;;;;;5036229;28;20139;-90
2022/04/07 08:32:22;;;;;;;3.15;0.50;;;;;;;;;;5020225;28;20135;-91
2022/04/07 08:34:48;;;;;;;3.85;0.70;;;;;;;;;;5020621;28;20041;-90
2022/04/07 08:37:14;;;;;;;5.35;0.75;;;;;;;;;;5020837;28;20058;-92
2022/04/07 08:39:40;;;;;;;6.43;1.00;;;;;;;;;;5037069;28;20040;-91
2022/04/07 08:42:07;;;;;;;3.75;0.85;;;;;;;;;;5036891;28;20451;-90
2022/04/07 08:44:33;;;;;;;4.82;0.77;;;;;;;;;;5036926;28;20117;-91
2022/04/07 08:46:59;;;;;;;8.30;0.82;;;;;;;;;;5035901;28;20547;-91
2022/04/07 08:49:26;;;;;;;6.07;0.90;;;;;;;;;;5036685;28;20045;-89
2022/04/07 08:51:53;;;;;;;4.15;0.80;;;;;;;;;;5035416;28;20041;-90
2022/04/07 08:54:19;;;;;;;5.22;0.75;;;;;;;;;;5049974;28;20048;-89
2022/04/07 08:56:46;;;;;;;7.70;0.80;;;;;;;;;;5035817;28;20041;-89
2022/04/07 08:59:12;;;;;;;6.32;1.15;;;;;;;;;;5036662;28;20045;-90
2022/04/07 09:01:38;;;;;;;4.28;0.73;;;;;;;;;;5052951;28;20481;-89
2022/04/07 09:04:04;;;;;;;9.07;1.08;;;;;;;;;;5035568;28;20047;-90
2022/04/07 09:06:33;;;;;;;4.55;1.02;;;;;;;;;;5053413;28;20033;-92
2022/04/07 09:09:10;;;;;;;6.03;0.88;;;;;;;;;;5053290;28;20040;-90
2022/04/07 09:11:36;;;;;;;3.55;0.52;;;;;;;;;;5036709;28;20040;-91
2022/04/07 09:14:02;;;;;;;6.25;0.82;;;;;;;;;;5053088;28;20455;-91
2022/04/07 09:16:28;;;;;;;6.47;1.23;;;;;;;;;;5052824;28;20045;-90
2022/04/07 09:18:54;;;;;;;5.45;1.10;;;;;;;;;;5053086;28;20041;-91
2022/04/07 09:21:27;;;;;;;6.82;1.00;;;;;;;;;;5052729;28;20037;-91
2022/04/07 09:23:54;;;;;;;6.95;1.30;;;;;;;;;;5036618;28;20047;-90
2022/04/07 09:26:20;;;;;;;6.55;0.95;;;;;;;;;;5052722;28;20040;-89
2022/04/07 09:28:46;;;;;;;6.20;1.10;;;;;;;;;;5053139;28;20040;-91
2022/04/07 09:31:14;;;;;;;5.00;1.17;;;;;;;;;;5052701;28;20037;-90
2022/04/07 09:33:40;;;;;;;11.48;1.27;;;;;;;;;;5052582;28;20041;-91
2022/04/07 09:36:10;;;;;;;7.40;1.08;;;;;;;;;;5036215;28;20041;-91
2022/04/07 09:38:38;;;;;;;6.68;0.95;;;;;;;;;;5052854;28;20199;-90
2022/04/07 09:41:11;;;;;;;6.38;1.17;;;;;;;;;;5052401;28;20360;-90
2022/04/07 09:43:47;;;;;;;4.30;0.90;;;;;;;;;;5051499;28;20048;-89
2022/04/07 09:46:17;;;;;;;9.07;1.30;;;;;;;;;;5035111;28;20049;-89
2022/04/07 09:49:03;;;;;;;11.80;2.03;;;;;;;;;;5052429;28;20075;-90
2022/04/07 09:51:29;;;;;;;7.57;1.00;;;;;;;;;;5052181;28;20530;-92
2022/04/07 09:53:56;;;;;;;9.38;1.42;;;;;;;;;;5052079;28;20041;-89
2022/04/07 09:56:26;;;;;;;9.63;1.30;;;;;;;;;;5035390;28;20121;-92
2022/04/07 09:58:53;;;;;;;8.45;1.30;;;;;;;;;;5052232;28;20060;-90
2022/04/07 10:01:19;;;;;;;8.73;1.10;;;;;;;;;;5051783;28;20044;-91
2022/04/07 10:03:49;;;;;;;11.70;1.88;;;;;;;;;;5051916;28;20496;-90
2022/04/07 10:06:16;;;;;;;7.90;1.40;;;;;;;;;;5051635;28;20045;-90
2022/04/07 10:08:43;;;;;;;8.07;1.17;;;;;;;;;;5052039;28;20481;-93
2022/04/07 10:11:09;;;;;;;10.80;1.30;;;;;;;;;;5052019;28;20053;-91
2022/04/07 10:13:37;;;;;;;9.20;2.00;;;;;;;;;;5051746;28;20044;-91
2022/04/07 10:16:04;;;;;;;8.80;1.33;;;;;;;;;;5035071;28;20037;-92
2022/04/07 10:18:43;;;;;;;9.80;1.95;;;;;;;;;;5052140;28;20047;-91
2022/04/07 10:21:11;;;;;;;9.05;1.58;;;;;;;;;;5051470;28;20048;-92
2022/04/07 10:23:52;;;;;;;10.07;1.60;;;;;;;;;;5051515;28;20041;-94
2022/04/07 10:26:18;;;;;;;12.48;1.83;;;;;;;;;;5051833;28;20436;-92
2022/04/07 10:28:50;;;;;;;11.30;1.73;;;;;;;;;;5037828;28;20037;-93
2022/04/07 10:31:16;;;;;;;12.60;1.80;;;;;;;;;;5052732;28;20500;-92
2022/04/07 10:33:45;;;;;;;9.25;1.33;;;;;;;;;;5052105;28;20329;-91
2022/04/07 10:36:18;;;;;;;11.30;1.73;;;;;;;;;;5033356;28;20170;-92
2022/04/07 10:38:49;;;;;;;10.77;1.50;;;;;;;;;;5034826;28;20068;-91
2022/04/07 10:41:33;;;;;;;9.73;1.70;;;;;;;;;;5035935;28;20045;-93
2022/04/07 10:44:12;;;;;;;10.15;1.58;;;;;;;;;;5034883;28;20071;-91
2022/04/07 10:46:38;;;;;;;9.43;1.77;;;;;;;;;;5018301;28;20431;-91
2022/04/07 10:49:06;;;;;;;11.27;2.00;;;;;;;;;;5018537;28;20048;-90
2022/04/07 10:51:55;;;;;;;10.35;1.85;;;;;;;;;;5034342;28;20120;-91
2022/04/07 10:54:21;;;;;;;12.15;2.40;;;;;;;;;;5022725;28;20059;-95
2022/04/07 10:56:56;;;;;;;11.32;1.77;;;;;;;;;;5024315;28;20048;-91
2022/04/07 10:59:25;;;;;;;12.27;2.10;;;;;;;;;;5040053;28;20047;-93
2022/04/07 11:02:03;;;;;;;8.88;1.58;;;;;;;;;;5055017;28;20045;-92
2022/04/07 11:04:30;;;;;;;11.57;1.80;;;;;;;;;;5056298;28;20033;-90
2022/04/07 11:07:07;;;;;;;9.60;1.70;;;;;;;;;;5054948;28;20477;-91
2022/04/07 11:10:02;;;;;;;17.17;2.30;;;;;;;;;;5038622;28;20049;-92
2022/04/07 11:12:34;;;;;;;9.18;1.48;;;;;;;;;;5054909;28;20144;-92
2022/04/07 11:15:03;;;;;;;11.45;1.80;;;;;;;;;;5053890;28;20040;-91
2022/04/07 11:17:32;;;;;;;7.57;1.58;;;;;;;;;;5054951;28;20056;-91
2022/04/07 11:20:16;;;;;;;10.85;1.80;;;;;;;;;;5053890;28;20056;-91
2022/04/07 11:23:08;;;;;;;8.90;2.22;;;;;;;;;;5037796;28;20077;-91
2022/04/07 11:25:36;;;;;;;7.05;1.42;;;;;;;;;;5053883;28;20512;-92
2022/04/07 11:28:02;;;;;;;10.55;1.70;;;;;;;;;;5054481;28;20403;-91
2022/04/07 11:30:38;;;;;;;7.40;1.90;;;;;;;;;;5054488;28;20194;-91
2022/04/07 11:33:25;;;;;;;10.25;1.90;;;;;;;;;;5054972;28;20037;-91
2022/04/07 11:36:02;;;;;;;13.10;1.98;;;;;;;;;;5054709;28;20056;-91
2022/04/07 11:38:29;;;;;;;13.60;2.60;;;;;;;;;;5054817;28;20057;-92
2022/04/07 11:40:58;;;;;;;13.38;2.42;;;;;;;;;;5054343;28;20041;-92
2022/04/07 11:43:25;;;;;;;15.00;2.67;;;;;;;;;;5054228;28;20037;-92
2022/04/07 11:45:52;;;;;;;11.75;2.15;;;;;;;;;;5052889;28;20603;-90
2022/04/07 11:48:18;;;;;;;12.77;1.90;;;;;;;;;;5054578;28;20044;-93
2022/04/07 11:50:44;;;;;;;15.30;2.20;;;;;;;;;;5053236;28;20044;-92
2022/04/07 11:53:10;;;;;;;12.80;2.53;;;;;;;;;;5037675;28;20435;-92
2022/04/07 11:55:36;;;;;;;14.65;2.58;;;;;;;;;;5052168;28;20128;-93
2022/04/07 11:58:02;;;;;;;11.70;2.25;;;;;;;;;;5037441;28;20072;-93
2022/04/07 12:00:32;;;;;;;12.25;2.20;;;;;;;;;;5036596;28;20559;-93
2022/04/07 12:02:59;;;;;;;11.82;2.35;;;;;;;;;;5055673;28;20045;-92
2022/04/07 12:05:25;;;;;;;12.52;2.17;;;;;;;;;;5052239;28;20091;-90
2022/04/07 12:07:51;;;;;;;15.90;2.45;;;;;;;;;;5035883;28;20041;-91
2022/04/07 12:10:18;;;;;;;14.10;2.30;;;;;;;;;;5037678;28;20396;-91
2022/04/07 12:12:44;;;;;;;11.23;2.78;;;;;;;;;;5019635;28;20133;-91
2022/04/07 12:15:11;;;;;;;14.82;2.33;;;;;;;;;;5037396;28;20051;-91
2022/04/07 12:17:37;;;;;;;11.32;2.47;;;;;;;;;;5019106;28;20037;-90
2022/04/07 12:20:03;;;;;;;12.07;2.22;;;;;;;;;;5037492;28;20131;-92
2022/04/07 12:22:31;;;;;;;15.63;2.42;;;;;;;;;;5035690;28;20041;-91
2022/04/07 12:25:00;;;;;;;14.15;2.28;;;;;;;;;;5055728;28;20040;-93
2022/04/07 12:27:30;;;;;;;10.45;2.55;;;;;;;;;;5036964;28;20041;-91
2022/04/07 12:29:57;;;;;;;17.20;2.90;;;;;;;;;;5055907;28;20044;-94
2022/04/07 12:32:23;;;;;;;15.85;1.85;;;;;;;;;;5037368;28;20049;-94
2022/04/07 12:34:49;;;;;;;15.68;3.22;;;;;;;;;;5037807;28;20041;-94
2022/04/07 12:37:26;;;;;;;11.02;2.10;;;;;;;;;;5037314;28;20048;-95
2022/04/07 12:39:52;;;;;;;13.45;2.35;;;;;;;;;;5037662;28;20044;-93
2022/04/07 12:42:18;;;;;;;10.25;1.90;;;;;;;;;;5040097;28;20041;-92
2022/04/07 12:44:48;;;;;;;9.98;2.03;;;;;;;;;;5036828;28;20090;-93
2022/04/07 12:47:16;;;;;;;6.72;1.05;;;;;;;;;;5020410;28;20040;-91
2022/04/07 12:49:53;;;;;;;9.15;1.33;;;;;;;;;;5036864;28;20412;-90
2022/04/07 12:52:21;;;;;;;8.30;1.20;;;;;;;;;;5054382;28;20076;-93
2022/04/07 12:55:04;;;;;;;4.47;0.82;;;;;;;;;;5036083;28;20048;-92
2022/04/07 12:57:35;;;;;;;6.68;1.67;;;;;;;;;;5036964;28;20052;-91
2022/04/07 13:00:07;;;;;;;9.50;1.52;;;;;;;;;;5054377;28;20041;-94
2022/04/07 13:02:56;;;;;;;7.35;1.30;;;;;;;;;;5036229;28;20095;-92
2022/04/07 13:05:27;;;;;;;7.88;0.82;;;;;;;;;;5010553;28;20124;-92
2022/04/07 13:08:03;;;;;;;5.55;1.48;;;;;;;;;;5036567;28;20051;-91
2022/04/07 13:10:30;;;;;;;3.25;0.70;;;;;;;;;;5035339;28;20048;-92
2022/04/07 13:12:56;;;;;;;3.33;0.75;;;;;;;;;;5036779;28;20201;-93
2022/04/07 13:15:22;;;;;;;4.43;0.65;;;;;;;;;;5019069;28;20055;-92
2022/04/07 13:17:48;;;;;;;4.85;0.75;;;;;;;;;;5037177;28;20056;-93
2022/04/07 13:20:15;;;;;;;8.65;1.17;;;;;;;;;;5035411;28;20041;-96
2022/04/07 13:22:41;;;;;;;4.72;1.02;;;;;;;;;;5019846;28;20036;-93
2022/04/07 13:25:07;;;;;;;8.80;1.38;;;;;;;;;;5036451;28;20033;-94
2022/04/07 13:27:33;;;;;;;5.75;1.15;;;;;;;;;;5039298;28;20114;-94
2022/04/07 13:29:59;;;;;;;6.40;0.88;;;;;;;;;;5035072;28;20453;-94
2022/04/07 13:32:25;;;;;;;6.35;1.52;;;;;;;;;;5053900;28;20182;-92
2022/04/07 13:34:52;;;;;;;4.18;1.05;;;;;;;;;;5036034;28;20523;-92
2022/04/07 13:37:18;;;;;;;8.75;1.33;;;;;;;;;;5035935;28;20072;-94
2022/04/07 13:39:44;;;;;;;5.50;1.40;;;;;;;;;;5036245;28;20128;-96
2022/04/07 13:42:11;;;;;;;8.05;1.60;;;;;;;;;;5035869;28;20037;-96
2022/04/07 13:44:37;;;;;;;5.38;1.55;;;;;;;;;;5029725;28;20127;-93
2022/04/07 13:47:03;;;;;;;7.47;1.15;;;;;;;;;;5055800;28;20040;-92
2022/04/07 13:49:29;;;;;;;8.23;1.63;;;;;;;;;;5038460;28;20475;-93
2022/04/07 13:51:56;;;;;;;9.20;1.52;;;;;;;;;;5055458;28;20160;-93
2022/04/07 13:54:22;;;;;;;6.88;1.42;;;;;;;;;;5055242;28;20480;-95
2022/04/07 13:56:48;;;;;;;3.92;1.00;;;;;;;;;;5039233;28;20045;-92
2022/04/07 13:59:14;;;;;;;8.88;1.20;;;;;;;;;;5038180;28;20044;-92
2022/04/07 14:01:40;;;;;;;2.53;0.60;;;;;;;;;;5038643;28;20043;-91
2022/04/07 14:04:06;;;;;;;4.65;1.08;;;;;;;;;;5054222;28;20048;-92
2022/04/07 14:06:32;;;;;;;4.85;0.77;;;;;;;;;;5055432;28;20403;-92
2022/04/07 14:08:58;;;;;;;3.90;0.80;;;;;;;;;;5055459;28;20059;-93
2022/04/07 14:11:25;;;;;;;3.00;0.90;;;;;;;;;;5038333;28;20040;-92
2022/04/07 14:13:52;;;;;;;3.83;0.80;;;;;;;;;;5055359;28;20095;-93
2022/04/07 14:16:18;;;;;;;3.63;1.10;;;;;;;;;;5038131;28;20044;-94
2022/04/07 14:18:44;;;;;;;2.67;0.82;;;;;;;;;;5055395;28;20043;-93
2022/04/07 14:21:13;;;;;;;6.10;1.08;;;;;;;;;;5037437;28;20043;-93
2022/04/07 14:23:39;;;;;;;3.95;1.10;;;;;;;;;;5035183;28;20045;-92
2022/04/07 14:26:05;;;;;;;6.80;0.80;;;;;;;;;;5018477;28;20405;-92
2022/04/07 14:28:32;;;;;;;6.05;0.70;;;;;;;;;;5018868;28;20041;-91
2022/04/07 14:30:58;;;;;;;3.58;0.80;;;;;;;;;;5020317;28;20562;-92
2022/04/07 14:33:24;;;;;;;6.00;0.93;;;;;;;;;;5039062;28;20048;-92
2022/04/07 14:35:50;;;;;;;5.40;1.13;;;;;;;;;;5021760;28;20376;-92
2022/04/07 14:38:16;;;;;;;5.57;1.15;;;;;;;;;;5022991;28;20064;-94
2022/04/07 14:40:43;;;;;;;3.00;0.85;;;;;;;;;;5022927;28;20068;-93